Weather observations for the past three days for
Hillsville
Imperial (Metric)
Date Time (edt) Wind (mph) Vis. (mi.) Weather Sky Cond. Temperature (ºF) Relative Humidity Wind Chill (°F) Heat Index (°F) Pressure Precipitation (in)
Air Dwpt 6 hour altimeter (in) sea level (mb) 1 hr 3 hr 6 hr
Max. Min.
08 09:15 N 5 10.00 Fair CLR 50 32 50% 49 30.05 0.0
08 08:55 Calm 10.00 Fair CLR 50 33.8 54% 30.05 0.0
08 08:35 W 3 10.00 Fair CLR 46.4 33.8 62% 30.05 0.0
08 08:15 Calm 10.00 Fair CLR 46.4 33.8 62% 30.04 0.0
08 07:55 Calm 10.00 Fair CLR 42.8 33.8 71% 30.04 0.0
08 07:35 Calm 10.00 Fair CLR 42.8 35.6 76% 30.03 0.0
08 07:15 SE 5 10.00 Fair CLR 41 33.8 76% 38 30.03 0.0
08 06:55 Calm 10.00 Fair CLR 41 32 70% 30.02 0.0
08 06:35 NW 5 10.00 Fair CLR 42.8 32 66% 41 30.01 0.0
08 06:15 NW 6 10.00 Fair CLR 42.8 32 66% 40 30 0.0
08 05:55 NW 6 10.00 Fair CLR 42.8 32 66% 40 30 0.0
08 05:35 NW 9 10.00 Fair CLR 44.6 32 61% 40 29.98 0.0
08 05:15 NW 10 10.00 Fair CLR 44.6 32 61% 40 29.98 0.0
08 04:55 NW 12 10.00 Fair CLR 44.6 32 61% 39 29.98 0.0
08 04:35 NW 13 10.00 Fair CLR 44.6 33.8 66% 39 29.98 0.0
08 04:15 NW 15 10.00 Fair CLR 44.6 33.8 66% 38 29.98 0.0
08 03:55 NW 16 10.00 Fair CLR 46.4 33.8 62% 40 29.98 0.0
08 03:35 NW 14 10.00 Fair CLR 46.4 33.8 62% 41 29.98 0.0
08 03:15 NW 13 10.00 Fair CLR 46.4 33.8 62% 41 29.98 0.0
08 02:55 NW 12 10.00 Fair CLR 46.4 33.8 62% 42 29.98 0.0
08 02:35 NW 13 10.00 Fair CLR 46.4 33.8 62% 41 29.98 0.0
08 02:15 NW 12 10.00 Fair CLR 46.4 35.6 66% 42 29.98 0.0
08 01:55 NW 10 10.00 Fair CLR 46.4 35.6 66% 42 29.98 0.0
08 01:35 NW 10 10.00 Fair CLR 46.4 37.4 71% 42 29.98 0.0
08 01:15 NW 12 10.00 Fair CLR 48.2 37.4 66% 44 29.98 0.0
08 00:55 NW 13 G 16 10.00 Fair CLR 48.2 37.4 66% 43 29.97 0.0
08 00:35 NW 9 10.00 Fair CLR 48.2 37.4 66% 45 29.96 0.0
08 00:15 NW 9 10.00 Fair CLR 50 37.4 62% 47 29.96 0.0
07 23:55 W 8 10.00 Fair CLR 50 37.4 62% 47 29.96 0.0
07 23:35 NW 10 G 17 10.00 Fair CLR 50 39.2 67% 46 29.96 0.0
07 23:15 NW 9 10.00 Fair CLR 50 39.2 67% 47 29.95 0.0
07 22:55 NW 6 10.00 Fair CLR 50 41 71% 48 29.95 0.0
07 22:35 NW 5 10.00 Fair CLR 50 41 71% 49 29.94 0.0
07 22:15 W 3 10.00 Fair CLR 48.2 41 76% 29.94 0.0
07 21:55 Calm 10.00 Fair CLR 50 41 71% 29.93 0.0
07 21:35 NW 6 10.00 Fair CLR 50 41 71% 48 29.92 0.0
07 21:15 NW 8 10.00 Fair CLR 50 41 71% 47 29.91 0.0
07 20:55 NW 7 10.00 Fair CLR 50 41 71% 48 29.9 0.0
07 20:35 NW 10 G 17 10.00 Fair CLR 51.8 41 67% 29.9 0.0
07 20:15 NW 10 G 20 10.00 Fair CLR 51.8 41 67% 29.9 0.0
07 19:55 NW 16 G 20 10.00 Partly Cloudy SCT035 53.6 39.2 58% 29.9 0.0
07 19:35 NW 14 G 18 10.00 Partly Cloudy SCT037 53.6 41 63% 29.9 0.0
07 19:15 NW 10 10.00 Partly Cloudy SCT037 53.6 39.2 58% 29.89 0.0
07 18:55 NW 14 G 23 10.00 Mostly Cloudy BKN035 53.6 39.2 58% 29.89 0.0
07 18:35 NW 15 G 20 10.00 Mostly Cloudy BKN030 BKN037 53.6 41 63% 29.87 0.0
07 18:15 NW 16 G 24 10.00 Mostly Cloudy BKN026 53.6 42.8 67% 29.87 0.0
07 17:55 NW 13 G 20 10.00 Mostly Cloudy BKN024 55.4 44.6 67% 29.87 0.0
07 17:35 NW 13 10.00 Overcast OVC022 55.4 44.6 67% 29.86 0.0
07 17:15 NW 18 G 24 10.00 Overcast BKN022 OVC031 53.6 44.6 72% 29.85 0.0
07 16:15 NW 16 G 23 10.00 Overcast BKN018 OVC023 57.2 46.4 67% 29.84 0.0
07 15:55 N 9 10.00 Overcast OVC016 55.4 46.4 72% 29.85 0.0
07 15:35 N 10 G 17 10.00 Overcast OVC016 53.6 46.4 77% 29.85 0.0
07 15:15 NW 14 0.00 NULL NULL 0 0 0% 29.86 0.0
07 14:55 NW 14 10.00 Overcast OVC015 55.4 48.2 77% 29.86 0.0
07 14:35 NW 14 G 18 10.00 Overcast OVC013 53.6 48.2 82% 29.87 0.0
07 14:15 N 9 10.00 Overcast OVC011 53.6 48.2 82% 29.87 0.0
07 13:55 NW 10 G 17 10.00 Overcast OVC009 53.6 48.2 82% 29.87 0.0
07 13:35 NW 10 10.00 Overcast OVC007 51.8 48.2 88% 29.87 0.0
07 13:15 N 9 10.00 Overcast OVC007 51.8 50 94% 29.87 0.0
07 12:55 N 8 10.00 Overcast OVC005 51.8 50 94% 29.88 0.0
07 12:35 NW 10 7.00 Overcast OVC003 51.8 50 94% 29.88 0.0
07 12:15 NE 6 5.00 Fog/Mist OVC003 51.8 50 94% 29.88 0.0
07 11:55 N 6 5.00 Fog/Mist OVC003 51.8 51.8 100% 29.88 0.0
07 11:35 N 9 4.00 Fog/Mist OVC003 51.8 50 94% 29.88 0.0
07 11:15 N 6 7.00 Overcast OVC003 51.8 51.8 100% 29.88 0.0
07 10:55 NE 7 7.00 Overcast OVC003 53.6 51.8 94% 29.88 0.0
07 10:15 N 6 10.00 Overcast OVC003 53.6 51.8 94% 29.88 0.0
07 09:55 N 7 10.00 Overcast OVC003 53.6 51.8 94% 29.88 0.0
07 09:35 NE 5 10.00 Overcast OVC003 53.6 51.8 94% 29.87 0.0
07 09:15 N 5 10.00 Overcast OVC005 53.6 51.8 94% 29.87 0.0
07 08:55 NE 6 10.00 Overcast OVC005 53.6 51.8 94% 29.87 0.0
07 08:35 N 5 10.00 Overcast OVC005 53.6 51.8 94% 29.91 0.0
07 08:15 N 5 10.00 Overcast OVC003 53.6 53.6 100% 29.9 0.0
07 07:55 N 6 10.00 Light Rain OVC003 53.6 53.6 100% 29.89 0.0
07 07:35 N 6 3.00 Fog/Mist OVC003 53.6 53.6 100% 29.87 0.0
07 07:15 N 5 0.25 Fog OVC003 53.6 53.6 100% 29.88 0.0
07 06:55 N 5 0.75 Fog/Mist OVC003 55.4 53.6 94% 29.87 0.0
07 06:35 N 3 7.00 Overcast OVC003 55.4 53.6 94% 29.86 0.0
07 06:15 N 7 10.00 Overcast OVC003 55.4 53.6 94% 29.87 0.0
07 05:55 N 17 G 21 0.25 Fog OVC003 57.2 55.4 94% 29.87 0.0 0.01
07 05:35 N 8 0.75 Fog/Mist OVC003 59 57.2 94% 29.86 0.0 0.01
07 05:15 N 3 3.00 Light Rain BKN039 BKN050 OVC100 59 57.2 94% 29.85 0.0 0.01
07 04:55 Calm 10.00 Overcast BKN039 OVC080 59 59 100% 29.85 0.0 0.01
07 04:35 Calm 5.00 Light Rain SCT039 BKN060 OVC095 59 57.2 94% 29.86 0.0 0.01
07 04:15 Calm 10.00 Light Drizzle SCT030 OVC060 59 57.2 94% 29.89 0.0
07 03:55 Calm 10.00 Overcast BKN060 OVC075 59 57.2 94% 29.87 0.0
07 03:35 S 5 10.00 Mostly Cloudy SCT075 BKN110 59 57.2 94% 29.88 0.0
07 03:15 SW 6 10.00 Partly Cloudy SCT090 SCT120 59 57.2 94% 29.87 0.0
07 02:55 SW 3 10.00 Overcast BKN090 OVC110 59 57.2 94% 29.88 0.0
07 02:35 S 3 10.00 Overcast OVC090 59 57.2 94% 29.88 0.0
07 02:15 S 5 10.00 Overcast BKN090 OVC110 59 55.4 88% 29.87 0.0
07 01:55 Calm 10.00 Mostly Cloudy SCT085 BKN110 59 57.2 94% 29.89 0.0
07 01:35 SW 3 10.00 Overcast BKN085 OVC110 60.8 55.4 83% 29.9 0.0
07 01:15 Calm 10.00 Overcast OVC085 60.8 55.4 83% 29.91 0.0
07 00:55 S 5 10.00 Overcast SCT045 SCT065 OVC085 60.8 55.4 83% 29.91 0.0
07 00:35 S 6 10.00 Overcast BKN043 BKN050 OVC065 60.8 57.2 88% 29.92 0.0
07 00:15 SW 3 10.00 Overcast SCT034 OVC042 60.8 57.2 88% 29.92 0.0
06 23:55 W 7 10.00 Overcast SCT016 BKN025 OVC033 60.8 59 94% 29.91 0.0 0.01
06 23:35 N 5 10.00 Overcast SCT014 BKN020 OVC120 60.8 59 94% 29.92 0.0 0.01
06 23:15 Calm 10.00 Mostly Cloudy BKN023 BKN120 62.6 59 88% 29.91 0.0 0.01
06 22:55 Calm 10.00 Rain SCT020 BKN025 OVC038 62.6 59 88% 29.94 0.0 0.01
06 22:35 W 7 10.00 Light Rain BKN025 BKN034 OVC045 62.6 59 88% 29.96 0.0
06 22:15 SW 10 10.00 Overcast SCT039 BKN048 OVC065 62.6 59 88% 29.93 0.0
06 21:55 S 6 10.00 Overcast SCT042 BKN050 OVC080 62.6 59 88% 29.92 0.0
06 21:35 S 6 10.00 Overcast BKN040 OVC048 62.6 59 88% 29.92 0.0
06 21:15 S 6 10.00 Overcast SCT039 OVC048 62.6 59 88% 29.91 0.0
06 20:55 S 5 10.00 Overcast OVC039 62.6 59 88% 29.91 0.0
06 20:35 S 6 10.00 Mostly Cloudy BKN039 BKN055 BKN075 62.6 59 88% 29.91 0.0
06 20:15 S 7 10.00 Light Rain SCT050 SCT070 BKN120 64.4 59 83% 29.9 0.0
06 19:55 SW 9 10.00 Mostly Cloudy SCT041 BKN048 64.4 59 83% 29.91 0.0
06 19:35 S 6 10.00 Overcast BKN041 OVC050 64.4 59 83% 29.9 0.0
06 19:15 S 6 10.00 Overcast SCT041 BKN048 OVC050 64.4 59 83% 29.9 0.0
06 18:55 S 7 10.00 Overcast OVC041 64.4 59 83% 29.9 0.0
06 18:35 S 9 10.00 Overcast BKN041 OVC048 64.4 59 83% 29.9 0.0
06 18:15 S 6 10.00 Overcast BKN041 BKN048 OVC060 64.4 59 83% 29.91 0.0
06 17:55 S 8 10.00 Overcast BKN041 BKN050 OVC055 64.4 59 83% 29.91 0.0
06 17:35 S 7 10.00 Overcast SCT031 OVC039 64.4 59 83% 29.9 0.0
06 17:15 S 7 10.00 Overcast BKN027 OVC035 66.2 59 78% 29.9 0.0
06 16:55 S 7 10.00 Overcast BKN030 OVC036 64.4 59 83% 29.9 0.0
06 16:35 Calm 10.00 Overcast BKN035 OVC045 68 59 73% 29.9 0.0
06 16:15 SW 10 10.00 Overcast BKN039 BKN048 OVC055 68 59 73% 29.9 0.0
06 15:55 S 8 10.00 Mostly Cloudy SCT039 BKN048 68 59 73% 29.9 0.0
06 15:35 SW 10 10.00 Fair CLR 68 59 73% 29.9 0.0
06 15:15 SW 9 10.00 Fair CLR 66.2 59 78% 29.91 0.0
06 14:55 S 7 10.00 Partly Cloudy SCT029 64.4 59 83% 29.9 0.0
06 14:35 S 7 10.00 Partly Cloudy SCT029 64.4 59 83% 29.91 0.0
06 14:15 S 8 10.00 Fair CLR 62.6 57.2 83% 29.91 0.0
06 13:55 S 7 10.00 Partly Cloudy SCT035 SCT070 SCT090 62.6 57.2 83% 29.91 0.0
06 13:35 SE 10 10.00 Light Rain SCT028 BKN070 OVC110 60.8 57.2 88% 29.91 0.0
06 13:15 S 3 10.00 Overcast SCT023 OVC030 60.8 57.2 88% 29.95 0.0
06 12:55 S 7 10.00 Light Rain SCT023 BKN028 OVC047 60.8 55.4 83% 29.96 0.0 0.02
06 12:35 S 7 10.00 Light Rain SCT032 BKN045 OVC100 62.6 55.4 77% 29.96 0.0
06 12:15 S 6 10.00 Mostly Cloudy SCT046 BKN110 62.6 55.4 77% 29.96 0.0
06 11:55 SW 7 10.00 Partly Cloudy SCT120 62.6 55.4 77% 29.95 0.0
06 11:35 S 7 10.00 Partly Cloudy SCT038 SCT065 SCT080 60.8 55.4 83% 29.94 0.0
06 11:15 S 8 10.00 Overcast SCT037 BKN045 OVC070 60.8 55.4 83% 29.93 0.0
06 10:55 S 5 10.00 Overcast SCT038 BKN044 OVC070 60.8 55.4 83% 29.94 0.0
06 10:35 S 7 10.00 Partly Cloudy SCT040 SCT050 SCT060 59 55.4 88% 29.94 0.0
06 10:15 S 6 10.00 Mostly Cloudy SCT038 BKN050 BKN070 59 53.6 82% 29.93 0.0
06 09:55 S 8 10.00 Light Rain SCT033 BKN070 OVC080 57.2 53.6 88% 29.94 0.0 0.02
06 09:35 S 6 10.00 Light Rain SCT044 BKN080 OVC100 55.4 53.6 94% 29.93 0.0 0.02
06 09:15 S 6 10.00 Light Rain SCT047 BKN070 OVC090 55.4 53.6 94% 29.93 0.0
06 08:55 S 7 10.00 Light Rain SCT060 BKN075 OVC090 55.4 53.6 94% 29.92 0.0 0.02
06 08:35 S 7 10.00 Light Rain SCT060 BKN070 OVC095 55.4 53.6 94% 29.92 0.0 0.02
06 08:15 S 10 10.00 Light Rain SCT041 BKN075 OVC095 55.4 53.6 94% 29.93 0.0 0.01
06 07:55 SW 8 10.00 Light Rain SCT041 BKN060 OVC100 57.2 51.8 82% 29.94 0.0
06 07:35 S 7 10.00 Overcast SCT080 OVC100 55.4 51.8 88% 29.91 0.0
06 07:15 S 6 10.00 Overcast SCT075 SCT090 OVC110 55.4 51.8 88% 29.91 0.0
06 06:55 S 9 10.00 Mostly Cloudy SCT090 BKN120 55.4 51.8 88% 29.9 0.0
06 06:35 S 8 10.00 Mostly Cloudy BKN090 BKN120 55.4 51.8 88% 29.9 0.0
06 06:15 S 9 10.00 Overcast OVC090 55.4 51.8 88% 29.89 0.0
06 05:55 S 8 10.00 Overcast OVC090 55.4 51.8 88% 29.89 0.0
06 05:35 S 8 10.00 Overcast SCT070 OVC090 55.4 50 82% 29.89 0.0
06 05:15 S 8 10.00 Light Rain BKN100 OVC120 55.4 50 82% 29.9 0.0
06 04:55 S 7 10.00 Mostly Cloudy SCT050 SCT100 BKN120 55.4 50 82% 29.91 0.0
06 04:35 S 7 10.00 Partly Cloudy SCT050 SCT095 SCT120 55.4 50 82% 29.91 0.0
06 04:15 S 9 10.00 Overcast BKN060 OVC095 57.2 50 77% 29.91 0.0
06 03:55 S 9 G 16 10.00 Overcast BKN060 OVC070 59 48.2 68% 29.91 0.0
06 03:35 S 10 G 18 10.00 Overcast SCT065 BKN080 OVC095 59 46.4 63% 29.91 0.0
06 03:15 S 8 10.00 Partly Cloudy SCT080 SCT110 59 46.4 63% 29.92 0.0
06 02:55 S 8 10.00 Mostly Cloudy SCT060 SCT075 BKN110 59 46.4 63% 29.92 0.0
06 01:55 S 8 10.00 Fair CLR 60.8 44.6 55% 29.93 0.0
06 01:35 S 12 10.00 Fair CLR 60.8 44.6 55% 29.94 0.0
06 01:15 SW 13 10.00 Fair CLR 60.8 44.6 55% 29.95 0.0
06 00:55 S 9 10.00 Partly Cloudy SCT080 60.8 44.6 55% 29.94 0.0
06 00:35 S 9 10.00 Mostly Cloudy BKN080 60.8 44.6 55% 29.95 0.0
06 00:15 S 10 10.00 Mostly Cloudy BKN080 BKN110 62.6 44.6 52% 29.95 0.0
05 23:55 S 13 G 17 10.00 Partly Cloudy SCT110 62.6 44.6 52% 29.95 0.0
05 23:35 S 13 G 21 10.00 Fair CLR 62.6 44.6 52% 29.95 0.0
05 23:15 S 12 G 17 10.00 Fair CLR 62.6 44.6 52% 29.95 0.0
05 22:55 S 12 G 18 10.00 Partly Cloudy SCT120 62.6 42.8 49% 29.95 0.0
05 22:35 S 8 10.00 Partly Cloudy SCT120 62.6 42.8 49% 29.96 0.0
05 22:15 S 10 10.00 Fair CLR 62.6 42.8 49% 29.96 0.0
05 21:55 S 9 10.00 Partly Cloudy SCT090 62.6 42.8 49% 29.96 0.0
05 21:35 S 8 10.00 Mostly Cloudy BKN100 62.6 42.8 49% 29.96 0.0
05 21:15 S 7 10.00 Overcast BKN100 OVC120 62.6 42.8 49% 29.96 0.0
05 20:55 S 7 10.00 Partly Cloudy SCT120 62.6 42.8 49% 29.96 0.0
05 20:35 S 7 10.00 Fair CLR 62.6 42.8 49% 29.96 0.0
05 20:15 S 8 10.00 Fair CLR 64.4 42.8 46% 29.96 0.0
05 19:55 S 8 10.00 Fair CLR 64.4 42.8 46% 29.96 0.0
05 19:35 S 10 G 20 10.00 Fair CLR 66.2 41 40% 29.96 0.0
05 19:15 S 15 G 22 10.00 Fair CLR 66.2 42.8 43% 29.95 0.0
05 18:55 S 10 G 26 10.00 Fair CLR 68 42.8 40% 29.94 0.0
05 18:35 S 13 G 22 10.00 Fair CLR 69.8 42.8 38% 29.94 0.0
05 18:15 S 14 G 22 10.00 Fair CLR 68 41 38% 29.95 0.0
05 17:55 S 12 G 24 10.00 Fair CLR 69.8 42.8 38% 29.94 0.0
05 17:35 S 14 G 21 10.00 Fair CLR 69.8 41 35% 29.95 0.0
05 17:15 SW 16 G 24 10.00 Fair CLR 69.8 41 35% 29.95 0.0
05 16:55 S 14 G 25 10.00 Fair CLR 69.8 39.2 33% 29.95 0.0
05 16:35 S 16 G 29 10.00 Fair CLR 69.8 39.2 33% 29.95 0.0
05 16:15 S 10 G 23 10.00 Fair CLR 69.8 42.8 38% 29.95 0.0
05 15:55 S 14 G 23 10.00 Fair CLR 69.8 42.8 38% 29.96 0.0
05 15:35 S 15 G 23 10.00 Fair CLR 71.6 42.8 36% 29.96 0.0
05 15:15 S 13 G 20 10.00 Fair CLR 71.6 41 33% 29.97 0.0
05 14:55 S 10 G 20 10.00 Fair CLR 69.8 37.4 31% 29.98 0.0
05 14:35 S 12 G 23 10.00 Fair CLR 69.8 37.4 31% 29.98 0.0
05 14:15 S 14 G 25 10.00 Fair CLR 69.8 39.2 33% 29.99 0.0
05 13:55 S 10 G 18 10.00 Fair CLR 69.8 44.6 40% 29.99 0.0
05 13:35 SE 14 10.00 Fair CLR 69.8 44.6 40% 29.99 0.0
05 13:15 S 13 10.00 Fair CLR 69.8 44.6 40% 30 0.0
05 12:55 S 10 10.00 Fair CLR 69.8 44.6 40% 30 0.0
05 12:35 SW 10 10.00 Fair CLR 69.8 42.8 38% 30.01 0.0
05 12:15 SW 7 G 10 10.00 Fair CLR 69.8 41 35% 30.02 0.0
05 11:55 SW 12 10.00 Fair CLR 68 41 38% 30.02 0.0
05 11:35 W 6 10.00 Fair CLR 68 41 38% 30.03 0.0
05 11:15 SW 7 10.00 Fair CLR 66.2 41 40% 30.04 0.0
05 10:55 SW 8 10.00 Fair CLR 66.2 42.8 43% 30.04 0.0
05 10:35 SW 9 10.00 Fair CLR 64.4 42.8 46% 30.03 0.0
05 10:15 SW 8 10.00 Fair CLR 64.4 41 43% 30.03 0.0
05 09:55 SW 3 10.00 Fair CLR 62.6 41 45% 30.03 0.0
05 09:35 SW 5 10.00 Fair CLR 62.6 44.6 52% 30.03 0.0
Date Time (edt) Wind (mph) Vis. (mi.) Weather Sky Cond. Air Dwpt Max. Min. Relative Humidity Wind Chill (°F) Heat Index (°F) altimeter (in) sea level (mb) 1 hr 3 hr 6 hr
6 hour
Temperature (ºF) Pressure Precipitation (in)